createdAt,value
2019-04-30T00:02:22.483Z,10.48
2019-04-30T00:04:50.029Z,10.46
2019-04-30T00:07:19.035Z,10.50
2019-04-30T00:09:49.350Z,10.52
2019-04-30T00:12:15.735Z,10.64
2019-04-30T00:14:44.810Z,10.47
2019-04-30T00:17:15.959Z,10.47
2019-04-30T00:19:40.572Z,10.40
2019-04-30T00:22:07.481Z,10.30
2019-04-30T00:24:35.482Z,10.32
2019-04-30T00:27:02.512Z,10.24
2019-04-30T00:29:30.999Z,10.25
2019-04-30T00:32:04.600Z,10.27
2019-04-30T00:34:30.918Z,10.22
2019-04-30T00:36:56.084Z,10.10
2019-04-30T00:39:23.090Z,10.15
2019-04-30T00:41:50.004Z,10.01
2019-04-30T00:44:19.854Z,10.03
2019-04-30T00:46:47.939Z,10.20
2019-04-30T00:49:18.381Z,10.08
2019-04-30T00:51:45.290Z,10.17
2019-04-30T00:54:12.447Z,10.10
2019-04-30T00:56:39.358Z,10.11
2019-04-30T00:59:10.333Z,10.06
2019-04-30T01:01:53.790Z,10.20
2019-04-30T01:04:28.096Z,10.15
2019-04-30T01:06:59.907Z,10.14
2019-04-30T01:09:25.609Z,10.18
2019-04-30T01:11:52.513Z,10.21
2019-04-30T01:14:23.190Z,10.17
2019-04-30T01:16:49.413Z,10.15
2019-04-30T01:19:27.625Z,10.16
2019-04-30T01:21:47.126Z,10.24
2019-04-30T01:24:14.338Z,10.24
2019-04-30T01:26:41.458Z,10.15
2019-04-30T01:29:10.194Z,10.16
2019-04-30T01:31:40.621Z,10.13
2019-04-30T01:34:10.331Z,10.08
2019-04-30T01:36:34.873Z,10.03
2019-04-30T01:39:01.803Z,10.07
2019-04-30T01:41:31.387Z,10.10
2019-04-30T01:43:58.524Z,10.04
2019-04-30T01:46:25.577Z,10.00
2019-04-30T01:48:52.487Z,10.07
2019-04-30T01:51:21.789Z,10.02
2019-04-30T01:53:48.528Z,9.93
2019-04-30T01:56:31.720Z,10.01
2019-04-30T01:59:02.847Z,9.93
2019-04-30T02:01:31.171Z,9.99
2019-04-30T02:03:58.577Z,9.96
2019-04-30T02:06:25.643Z,9.96
2019-04-30T02:08:52.570Z,9.94
2019-04-30T02:11:19.511Z,10.04
2019-04-30T02:13:46.577Z,10.07
2019-04-30T02:16:13.511Z,9.92
2019-04-30T02:18:40.816Z,10.05
2019-04-30T02:21:08.948Z,9.98
2019-04-30T02:23:36.571Z,9.96
2019-04-30T02:26:03.500Z,10.02
2019-04-30T02:28:30.411Z,10.04
2019-04-30T02:30:59.907Z,10.00
2019-04-30T02:33:27.046Z,9.85
2019-04-30T02:36:22.769Z,9.78
2019-04-30T02:38:51.961Z,9.76
2019-04-30T02:41:19.647Z,9.65
2019-04-30T02:43:49.989Z,9.63
2019-04-30T02:46:19.226Z,9.58
2019-04-30T02:48:50.447Z,9.55
2019-04-30T02:51:20.093Z,9.55
2019-04-30T02:54:23.976Z,9.52
2019-04-30T02:57:11.766Z,9.35
2019-04-30T03:00:00.019Z,9.30
2019-04-30T03:02:29.189Z,9.30
2019-04-30T03:04:56.290Z,9.18
2019-04-30T03:07:23.304Z,9.12
2019-04-30T03:09:50.197Z,9.01
2019-04-30T03:12:17.163Z,8.97
2019-04-30T03:14:44.084Z,8.97
2019-04-30T03:17:21.050Z,8.86
2019-04-30T03:19:53.563Z,8.78
2019-04-30T03:22:23.380Z,8.82
2019-04-30T03:24:50.383Z,8.94
2019-04-30T03:27:17.342Z,9.07
2019-04-30T03:29:44.264Z,8.90
2019-04-30T03:32:13.323Z,8.85
2019-04-30T03:34:42.058Z,8.92
2019-04-30T03:37:09.946Z,8.88
2019-04-30T03:39:39.687Z,9.08
2019-04-30T03:42:05.917Z,8.95
2019-04-30T03:44:32.935Z,8.94
2019-04-30T03:46:59.877Z,8.92
2019-04-30T03:49:26.815Z,9.04
2019-04-30T03:51:53.770Z,9.01
2019-04-30T03:54:20.691Z,8.90
2019-04-30T03:56:50.202Z,8.97
2019-04-30T03:59:19.705Z,9.02
2019-04-30T04:02:12.282Z,8.97
2019-04-30T04:04:41.687Z,9.10
2019-04-30T04:07:20.327Z,8.99
2019-04-30T04:09:54.388Z,9.04
2019-04-30T04:12:21.497Z,9.16
2019-04-30T04:14:50.845Z,9.16
2019-04-30T04:17:20.087Z,9.04
2019-04-30T04:19:49.476Z,9.08
2019-04-30T04:22:20.318Z,9.03
2019-04-30T04:24:46.050Z,9.10
2019-04-30T04:27:12.985Z,9.09
2019-04-30T04:29:40.437Z,9.13
2019-04-30T04:32:10.422Z,9.15
2019-04-30T04:34:36.298Z,9.16
2019-04-30T04:37:03.261Z,9.15
2019-04-30T04:39:30.180Z,9.05
2019-04-30T04:41:59.799Z,9.01
2019-04-30T04:44:25.979Z,9.09
2019-04-30T04:46:53.016Z,8.99
2019-04-30T04:49:20.589Z,9.06
2019-04-30T04:51:49.276Z,8.95
2019-04-30T04:54:16.520Z,9.08
2019-04-30T04:56:43.470Z,9.11
2019-04-30T04:59:10.496Z,9.08
2019-04-30T05:01:38.754Z,9.12
2019-04-30T05:04:05.850Z,9.16
2019-04-30T05:06:32.807Z,9.26
2019-04-30T05:09:01.697Z,9.12
2019-04-30T05:11:29.321Z,9.03
2019-04-30T05:13:58.940Z,9.15
2019-04-30T05:16:26.087Z,9.16
2019-04-30T05:18:53.053Z,9.20
2019-04-30T05:21:19.986Z,9.26
2019-04-30T05:23:46.935Z,9.23
2019-04-30T05:26:13.869Z,9.26
2019-04-30T05:28:40.823Z,9.17
2019-04-30T05:31:08.747Z,9.33
2019-04-30T05:33:35.808Z,9.32
2019-04-30T05:36:02.759Z,9.33
2019-04-30T05:38:31.312Z,9.28
2019-04-30T05:40:59.582Z,9.40
2019-04-30T05:43:26.617Z,9.36
2019-04-30T05:45:53.536Z,9.41
2019-04-30T05:48:20.478Z,9.32
2019-04-30T05:50:51.491Z,9.36
2019-04-30T05:53:16.271Z,9.30
2019-04-30T05:55:43.191Z,9.40
2019-04-30T05:58:10.138Z,9.37
2019-04-30T06:00:37.063Z,9.25
2019-04-30T06:03:04.002Z,9.35
2019-04-30T06:05:30.929Z,9.36
2019-04-30T06:07:59.337Z,9.44
2019-04-30T06:10:33.638Z,9.34
2019-04-30T06:13:10.765Z,9.27
2019-04-30T06:15:45.697Z,9.18
2019-04-30T06:18:13.969Z,9.21
2019-04-30T06:20:41.055Z,9.19
2019-04-30T06:23:09.511Z,9.21
2019-04-30T06:25:55.558Z,9.06
2019-04-30T06:28:06.314Z,9.13
2019-04-30T06:30:33.730Z,9.12
2019-04-30T06:33:01.396Z,9.20
2019-04-30T06:35:29.444Z,9.05
2019-04-30T06:37:58.783Z,8.97
2019-04-30T06:40:25.455Z,9.04
2019-04-30T06:42:52.517Z,9.10
2019-04-30T06:45:19.439Z,9.13
2019-04-30T06:47:48.928Z,9.35
2019-04-30T06:50:16.213Z,9.44
2019-04-30T06:52:54.211Z,9.53
2019-04-30T06:55:12.340Z,9.39
2019-04-30T06:57:39.258Z,9.63
2019-04-30T07:00:06.617Z,9.82
2019-04-30T07:02:33.559Z,9.74
2019-04-30T07:05:00.515Z,9.70
2019-04-30T07:07:37.087Z,9.51
2019-04-30T07:10:02.739Z,9.46
2019-04-30T07:12:55.002Z,9.55
2019-04-30T07:15:21.965Z,9.66
2019-04-30T07:17:49.262Z,9.81
2019-04-30T07:20:16.354Z,9.53
2019-04-30T07:22:49.669Z,9.45
2019-04-30T07:25:12.149Z,9.64
2019-04-30T07:27:40.079Z,9.69
2019-04-30T07:30:09.763Z,9.80
2019-04-30T07:32:36.353Z,9.96
2019-04-30T07:35:03.659Z,10.05
2019-04-30T07:37:30.599Z,9.97
2019-04-30T07:39:58.886Z,9.94
2019-04-30T07:42:25.962Z,9.74
2019-04-30T07:44:53.096Z,9.92
2019-04-30T07:47:20.003Z,10.04
2019-04-30T07:52:16.554Z,10.08
2019-04-30T07:54:43.838Z,10.32
2019-04-30T07:57:10.759Z,10.35
2019-04-30T07:59:39.686Z,10.60
2019-04-30T08:02:12.242Z,10.61
2019-04-30T08:04:53.389Z,10.75
2019-04-30T08:07:20.713Z,11.04
2019-04-30T08:09:35.522Z,9.87
2019-04-30T08:09:49.316Z,11.10
2019-04-30T08:12:25.086Z,10.85
2019-04-30T08:14:45.263Z,10.92
2019-04-30T08:17:13.165Z,10.78
2019-04-30T08:19:41.116Z,10.90
2019-04-30T08:22:09.587Z,11.15
2019-04-30T08:24:36.663Z,11.00
2019-04-30T08:27:03.664Z,10.87
2019-04-30T08:29:30.639Z,11.18
2019-04-30T08:31:59.309Z,11.19
2019-04-30T08:34:26.436Z,11.09
2019-04-30T08:36:53.405Z,10.85
2019-04-30T08:39:20.330Z,10.97
2019-04-30T08:41:49.225Z,11.29
2019-04-30T08:44:16.109Z,11.29
2019-04-30T08:46:43.042Z,11.18
2019-04-30T08:49:10.316Z,11.05
2019-04-30T08:51:38.785Z,11.45
2019-04-30T08:54:06.239Z,11.19
2019-04-30T08:56:33.183Z,11.30
2019-04-30T08:59:00.100Z,11.03
2019-04-30T09:01:29.211Z,11.32
2019-04-30T09:03:55.878Z,11.53
2019-04-30T09:06:25.481Z,11.59
2019-04-30T09:08:55.080Z,11.82
2019-04-30T09:11:28.338Z,12.20
2019-04-30T09:13:50.842Z,12.37
2019-04-30T09:16:19.455Z,12.00
2019-04-30T09:18:46.501Z,11.66
2019-04-30T09:21:13.456Z,12.12
2019-04-30T09:23:49.454Z,11.93
2019-04-30T09:26:09.227Z,11.99
2019-04-30T09:28:36.141Z,12.40
2019-04-30T09:31:03.196Z,12.42
2019-04-30T09:33:30.196Z,12.15
2019-04-30T09:35:57.170Z,12.59
2019-04-30T09:38:24.092Z,12.46
2019-04-30T09:40:51.031Z,12.59
2019-04-30T09:43:18.790Z,12.93
2019-04-30T09:45:45.925Z,12.80
2019-04-30T09:48:12.851Z,12.72
2019-04-30T09:50:39.906Z,12.75
2019-04-30T09:53:07.191Z,12.96
2019-04-30T09:55:34.280Z,13.11
2019-04-30T09:58:01.201Z,13.40
2019-04-30T10:00:29.554Z,13.63
2019-04-30T10:02:59.856Z,13.72
2019-04-30T10:05:29.053Z,13.78
2019-04-30T10:07:56.090Z,13.99
2019-04-30T10:10:28.929Z,14.14
2019-04-30T10:12:56.089Z,13.95
2019-04-30T10:15:42.724Z,14.17
2019-04-30T10:18:09.685Z,14.47
2019-04-30T10:20:48.413Z,13.98
2019-04-30T10:23:15.344Z,14.40
2019-04-30T10:25:42.423Z,14.13
2019-04-30T10:28:10.032Z,14.13
2019-04-30T10:30:37.331Z,14.34
2019-04-30T10:33:05.317Z,14.34
2019-04-30T10:35:32.572Z,14.40
2019-04-30T10:37:59.674Z,14.54
2019-04-30T10:40:28.572Z,14.76
2019-04-30T10:42:55.523Z,14.85
2019-04-30T10:45:22.453Z,14.71
2019-04-30T10:47:49.445Z,14.70
2019-04-30T10:50:16.497Z,15.41
2019-04-30T10:52:43.454Z,15.52
2019-04-30T10:55:10.587Z,16.02
2019-04-30T10:57:39.525Z,15.61
2019-04-30T11:00:11.252Z,15.36
2019-04-30T11:02:38.693Z,15.24
2019-04-30T11:05:05.924Z,14.91
2019-04-30T11:07:33.557Z,15.37
2019-04-30T11:10:00.483Z,15.65
2019-04-30T11:12:29.077Z,15.44
2019-04-30T11:14:56.261Z,15.92
2019-04-30T11:17:23.440Z,16.10
2019-04-30T11:19:50.849Z,16.05
2019-04-30T11:22:18.018Z,15.81
2019-04-30T11:24:56.663Z,15.47
2019-04-30T11:27:14.469Z,16.10
2019-04-30T11:29:42.054Z,16.12
2019-04-30T11:32:18.333Z,16.24
2019-04-30T11:34:45.437Z,16.12
2019-04-30T11:37:12.537Z,16.10
2019-04-30T11:39:39.619Z,16.61
2019-04-30T11:42:06.610Z,16.71
2019-04-30T11:44:33.552Z,16.38
2019-04-30T11:47:25.077Z,16.32
2019-04-30T11:49:52.236Z,16.47
2019-04-30T11:52:19.202Z,16.60
2019-04-30T11:54:51.347Z,16.60
2019-04-30T11:57:15.022Z,17.30
2019-04-30T12:00:00.399Z,17.57
2019-04-30T12:02:56.613Z,17.80
2019-04-30T12:05:23.556Z,17.65
2019-04-30T12:08:09.567Z,17.39
2019-04-30T12:10:58.409Z,17.09
2019-04-30T12:13:26.595Z,17.87
2019-04-30T12:15:54.254Z,17.84
2019-04-30T12:18:21.314Z,18.47
2019-04-30T12:20:48.277Z,18.40
2019-04-30T12:23:16.311Z,18.46
2019-04-30T12:25:43.234Z,18.56
2019-04-30T12:28:10.186Z,18.72
2019-04-30T12:30:39.060Z,19.12
2019-04-30T12:33:06.036Z,18.31
2019-04-30T12:35:33.010Z,18.16
2019-04-30T12:37:59.987Z,18.20
2019-04-30T12:40:30.098Z,19.29
2019-04-30T12:42:55.747Z,18.46
2019-04-30T12:45:22.759Z,18.15
2019-04-30T12:47:54.320Z,17.98
2019-04-30T12:50:26.598Z,18.24
2019-04-30T12:52:59.459Z,17.94
2019-04-30T12:55:51.993Z,17.99
2019-04-30T12:58:20.700Z,18.33
2019-04-30T13:00:49.156Z,18.69
2019-04-30T13:03:16.199Z,19.22
2019-04-30T13:05:43.296Z,19.22
2019-04-30T13:08:11.025Z,18.70
2019-04-30T13:10:38.940Z,19.62
2019-04-30T13:13:06.811Z,19.59
2019-04-30T13:15:34.234Z,18.50
2019-04-30T13:18:01.198Z,19.09
2019-04-30T13:20:29.292Z,19.78
2019-04-30T13:22:56.469Z,19.33
2019-04-30T13:25:32.474Z,19.02
2019-04-30T13:27:55.439Z,19.05
2019-04-30T13:30:24.316Z,19.00
2019-04-30T13:33:06.311Z,19.85
2019-04-30T13:35:33.379Z,20.10
2019-04-30T13:38:09.421Z,18.38
2019-04-30T13:40:45.359Z,19.50
2019-04-30T13:43:12.793Z,19.51
2019-04-30T13:45:39.752Z,19.73
2019-04-30T13:48:08.808Z,19.92
2019-04-30T13:50:35.569Z,20.12
2019-04-30T13:53:02.573Z,19.33
2019-04-30T13:55:42.490Z,19.56
2019-04-30T13:57:58.481Z,19.88
2019-04-30T14:00:27.337Z,20.14
2019-04-30T14:03:02.891Z,19.81
2019-04-30T14:05:29.997Z,20.02
2019-04-30T14:08:10.383Z,19.10
2019-04-30T14:10:40.275Z,18.88
2019-04-30T14:13:08.668Z,19.13
2019-04-30T14:15:36.342Z,19.42
2019-04-30T14:18:03.488Z,20.51
2019-04-30T14:20:30.450Z,20.16
2019-04-30T14:22:57.669Z,20.21
2019-04-30T14:25:24.675Z,20.23
2019-04-30T14:27:54.472Z,19.50
2019-04-30T14:30:20.651Z,19.70
2019-04-30T14:32:50.602Z,20.49
2019-04-30T14:35:18.641Z,20.11
2019-04-30T14:37:45.520Z,20.89
2019-04-30T14:40:14.455Z,19.83
2019-04-30T14:42:49.050Z,19.67
2019-04-30T14:45:21.837Z,19.76
2019-04-30T14:48:00.926Z,19.46
2019-04-30T14:50:28.591Z,20.22
2019-04-30T14:53:07.510Z,18.99
2019-04-30T14:55:44.084Z,19.61
2019-04-30T14:58:29.375Z,19.26
2019-04-30T15:01:04.643Z,19.44
2019-04-30T15:03:31.857Z,19.01
2019-04-30T15:05:59.040Z,19.42
2019-04-30T15:08:26.041Z,19.88
2019-04-30T15:10:53.042Z,20.42
2019-04-30T15:13:20.057Z,19.63
2019-04-30T15:15:49.078Z,19.71
2019-04-30T15:18:15.960Z,20.19
2019-04-30T15:20:42.923Z,20.12
2019-04-30T15:23:28.103Z,19.93
2019-04-30T15:25:55.198Z,20.11
2019-04-30T15:28:22.134Z,20.62
2019-04-30T15:30:49.344Z,19.56
2019-04-30T15:33:23.513Z,19.45
2019-04-30T15:35:50.632Z,19.74
2019-04-30T15:38:19.268Z,20.09
2019-04-30T15:40:46.419Z,19.91
2019-04-30T15:43:13.388Z,19.97
2019-04-30T15:45:40.349Z,18.91
2019-04-30T15:48:08.542Z,18.78
2019-04-30T15:50:35.738Z,18.77
2019-04-30T15:53:03.300Z,19.00
2019-04-30T15:55:30.885Z,19.01
2019-04-30T15:58:17.444Z,18.86
2019-04-30T16:00:44.661Z,18.69
2019-04-30T16:03:17.577Z,18.40
2019-04-30T16:05:47.131Z,18.86
2019-04-30T16:08:33.836Z,19.08
2019-04-30T16:14:13.928Z,19.19
2019-04-30T16:16:44.110Z,19.19
2019-04-30T16:19:11.065Z,19.23
2019-04-30T16:21:38.063Z,19.07
2019-04-30T16:24:05.006Z,18.65
2019-04-30T16:26:32.053Z,18.63
2019-04-30T16:28:59.022Z,18.91
2019-04-30T16:31:26.024Z,18.73
2019-04-30T16:33:52.983Z,18.81
2019-04-30T16:36:19.989Z,18.73
2019-04-30T16:38:48.623Z,18.57
2019-04-30T16:43:56.033Z,18.43
2019-04-30T16:46:22.982Z,18.43
2019-04-30T16:48:49.902Z,18.34
2019-04-30T16:51:18.788Z,18.06
2019-04-30T16:53:45.686Z,18.06
2019-04-30T16:56:12.626Z,17.96
2019-04-30T16:58:57.680Z,17.97
2019-04-30T17:01:24.744Z,17.72
2019-04-30T17:03:54.329Z,17.79
2019-04-30T17:06:23.321Z,17.93
2019-04-30T17:09:01.352Z,17.86
2019-04-30T17:11:49.006Z,17.86
2019-04-30T17:14:16.876Z,17.88
2019-04-30T17:16:43.849Z,17.84
2019-04-30T17:19:10.786Z,17.91
2019-04-30T17:21:37.815Z,17.91
2019-04-30T17:24:04.731Z,17.82
2019-04-30T17:26:31.726Z,17.79
2019-04-30T17:28:59.840Z,17.78
2019-04-30T17:31:26.931Z,17.68
2019-04-30T17:33:53.861Z,17.58
2019-04-30T17:36:20.854Z,17.46
2019-04-30T17:38:47.772Z,17.63
2019-04-30T17:41:14.726Z,17.46
2019-04-30T17:43:41.913Z,17.27
2019-04-30T17:46:08.842Z,17.31
2019-04-30T17:48:35.777Z,17.33
2019-04-30T17:51:03.305Z,17.34
2019-04-30T17:53:31.242Z,17.37
2019-04-30T17:55:58.200Z,17.19
2019-04-30T17:58:25.755Z,17.14
2019-04-30T18:00:55.082Z,17.18
2019-04-30T18:03:22.009Z,17.04
2019-04-30T18:05:49.276Z,17.04
2019-04-30T18:08:16.634Z,16.98
2019-04-30T18:10:43.561Z,16.82
2019-04-30T18:13:10.717Z,16.92
2019-04-30T18:15:37.658Z,16.92
2019-04-30T18:18:24.987Z,16.63
2019-04-30T18:20:59.362Z,16.69
2019-04-30T18:23:37.498Z,16.58
2019-04-30T18:26:09.089Z,16.51
2019-04-30T18:28:36.015Z,16.41
2019-04-30T18:31:03.469Z,16.32
2019-04-30T18:33:30.404Z,16.32
2019-04-30T18:35:57.359Z,16.19
2019-04-30T18:38:24.319Z,16.14
2019-04-30T18:40:51.264Z,16.07
2019-04-30T18:43:20.366Z,15.93
2019-04-30T18:45:49.322Z,15.89
2019-04-30T18:48:15.948Z,15.70
2019-04-30T18:50:42.858Z,15.69
2019-04-30T18:53:15.179Z,15.70
2019-04-30T18:55:42.111Z,15.71
2019-04-30T18:58:09.086Z,15.54
2019-04-30T19:00:39.893Z,15.55
2019-04-30T19:03:08.658Z,15.44
2019-04-30T19:05:36.101Z,15.40
2019-04-30T19:08:10.003Z,15.36
2019-04-30T19:11:03.765Z,15.27
2019-04-30T19:13:50.980Z,15.23
2019-04-30T19:16:40.039Z,15.21
2019-04-30T19:19:12.734Z,15.01
2019-04-30T19:21:40.404Z,15.01
2019-04-30T19:24:08.636Z,14.98
2019-04-30T19:26:35.849Z,14.91
2019-04-30T19:29:03.108Z,14.87
2019-04-30T19:31:30.047Z,14.74
2019-04-30T19:33:58.875Z,14.78
2019-04-30T19:36:34.931Z,14.70
2019-04-30T19:38:54.734Z,14.54
2019-04-30T19:41:21.670Z,14.32
2019-04-30T19:43:50.078Z,14.10
2019-04-30T19:46:18.799Z,14.13
2019-04-30T19:48:45.921Z,14.10
2019-04-30T19:51:13.963Z,14.02
2019-04-30T19:53:40.978Z,13.90
2019-04-30T19:56:07.919Z,13.90
2019-04-30T19:58:52.292Z,13.80
2019-04-30T20:01:03.826Z,13.74
2019-04-30T20:03:30.780Z,13.79
2019-04-30T20:05:58.610Z,13.47
2019-04-30T20:08:25.716Z,13.59
2019-04-30T20:10:52.648Z,13.60
2019-04-30T20:13:33.104Z,13.68
2019-04-30T20:15:49.377Z,13.65
2019-04-30T20:18:16.538Z,13.61
2019-04-30T20:20:45.975Z,13.57
2019-04-30T20:23:12.932Z,13.50
2019-04-30T20:25:39.875Z,13.36
2019-04-30T20:28:06.843Z,13.46
2019-04-30T20:30:33.801Z,13.45
2019-04-30T20:33:02.978Z,13.58
2019-04-30T20:35:29.942Z,13.49
2019-04-30T20:38:31.633Z,13.42
2019-04-30T20:41:02.802Z,13.41
2019-04-30T20:43:28.556Z,13.40
2019-04-30T20:45:55.670Z,13.38
2019-04-30T20:48:22.697Z,13.37
2019-04-30T20:50:49.622Z,13.40
2019-04-30T20:53:16.594Z,13.32
2019-04-30T20:55:43.531Z,13.29
2019-04-30T20:58:10.483Z,13.25
2019-04-30T21:00:37.408Z,12.84
2019-04-30T21:03:04.470Z,12.80
2019-04-30T21:05:31.493Z,12.79
2019-04-30T21:07:58.517Z,12.61
2019-04-30T21:10:25.442Z,12.58
2019-04-30T21:12:52.406Z,12.78
2019-04-30T21:15:19.723Z,12.60
2019-04-30T21:17:48.375Z,12.61
2019-04-30T21:20:15.584Z,12.59
2019-04-30T21:22:42.510Z,12.43
2019-04-30T21:25:12.328Z,12.42
2019-04-30T21:27:40.144Z,12.50
2019-04-30T21:30:07.466Z,12.45
2019-04-30T21:32:52.737Z,12.31
2019-04-30T21:35:37.730Z,12.35
2019-04-30T21:38:04.693Z,12.39
2019-04-30T21:40:31.654Z,12.42
2019-04-30T21:42:58.587Z,12.34
2019-04-30T21:45:25.571Z,12.28
2019-04-30T21:47:56.455Z,12.31
2019-04-30T21:50:21.363Z,12.31
2019-04-30T21:52:49.565Z,12.40
2019-04-30T21:55:16.546Z,12.35
2019-04-30T21:57:43.481Z,12.20
2019-04-30T22:00:13.039Z,12.21
2019-04-30T22:02:40.540Z,12.21
2019-04-30T22:05:07.604Z,12.07
2019-04-30T22:07:34.516Z,12.08
2019-04-30T22:10:01.495Z,12.13
2019-04-30T22:12:30.965Z,11.98
2019-04-30T22:14:57.241Z,11.94
2019-04-30T22:17:24.171Z,11.79
2019-04-30T22:19:51.660Z,11.71
2019-04-30T22:22:19.331Z,11.83
2019-04-30T22:24:46.392Z,12.03
2019-04-30T22:27:13.311Z,11.84
2019-04-30T22:29:42.279Z,11.68
2019-04-30T22:32:09.407Z,11.48
2019-04-30T22:34:36.374Z,11.42
2019-04-30T22:37:03.585Z,11.44
2019-04-30T22:39:59.364Z,11.50
2019-04-30T22:42:31.210Z,11.40
2019-04-30T22:44:58.822Z,11.51
2019-04-30T22:47:25.738Z,11.27
2019-04-30T22:49:52.690Z,10.97
2019-04-30T22:52:21.888Z,10.96
2019-04-30T22:54:48.456Z,10.95
2019-04-30T22:57:15.367Z,11.01
2019-04-30T22:59:49.849Z,11.20
2019-04-30T23:02:21.399Z,11.23
2019-04-30T23:04:48.620Z,11.00
2019-04-30T23:07:15.534Z,10.70
2019-04-30T23:09:42.479Z,10.52
2019-04-30T23:12:09.498Z,10.45
2019-04-30T23:14:36.447Z,10.48
2019-04-30T23:17:03.665Z,10.53
2019-04-30T23:19:30.651Z,10.63
2019-04-30T23:21:57.594Z,10.78
2019-04-30T23:24:24.514Z,10.75
2019-04-30T23:26:51.484Z,10.59
2019-04-30T23:29:18.401Z,10.59
2019-04-30T23:31:45.371Z,10.58
2019-04-30T23:34:18.047Z,10.75
2019-04-30T23:36:41.165Z,10.84
2019-04-30T23:39:09.390Z,10.67
2019-04-30T23:41:36.353Z,10.44
2019-04-30T23:44:03.416Z,10.18
2019-04-30T23:46:30.381Z,10.11
2019-04-30T23:48:57.345Z,10.22
2019-04-30T23:51:24.312Z,10.25
2019-04-30T23:53:51.363Z,10.15
2019-04-30T23:56:21.597Z,10.15
2019-04-30T23:58:48.538Z,10.23
